createdAt,value
2023-11-19T00:00:30.141Z,14.70
2023-11-19T00:02:57.616Z,13.13
2023-11-19T00:05:24.977Z,12.10
2023-11-19T00:07:52.184Z,14.73
2023-11-19T00:10:22.416Z,14.15
2023-11-19T00:12:50.887Z,14.88
2023-11-19T00:15:20.050Z,16.30
2023-11-19T00:17:49.933Z,14.98
2023-11-19T00:20:20.012Z,14.90
2023-11-19T00:22:53.081Z,14.70
2023-11-19T00:25:23.159Z,13.93
2023-11-19T00:27:52.818Z,15.00
2023-11-19T00:30:20.226Z,13.45
2023-11-19T00:32:47.560Z,13.85
2023-11-19T00:35:16.121Z,13.93
2023-11-19T00:37:44.216Z,13.57
2023-11-19T00:40:12.577Z,14.32
2023-11-19T00:42:40.164Z,13.75
2023-11-19T00:45:11.521Z,14.00
2023-11-19T00:47:40.328Z,15.07
2023-11-19T00:50:12.741Z,15.25
2023-11-19T00:52:40.432Z,15.80
2023-11-19T00:55:08.803Z,16.35
2023-11-19T00:57:38.515Z,15.18
2023-11-19T01:00:29.391Z,13.95
2023-11-19T01:02:56.692Z,14.70
2023-11-19T01:05:24.235Z,14.68
2023-11-19T01:07:55.116Z,14.85
2023-11-19T01:10:22.945Z,13.80
2023-11-19T01:12:50.517Z,14.40
2023-11-19T01:15:20.184Z,13.93
2023-11-19T01:20:18.499Z,13.38
2023-11-19T01:22:45.987Z,12.85
2023-11-19T01:25:15.664Z,13.40
2023-11-19T01:27:43.093Z,12.50
2023-11-19T01:30:14.433Z,12.57
2023-11-19T01:32:41.981Z,14.13
2023-11-19T01:35:09.504Z,14.38
2023-11-19T01:37:37.839Z,14.75
2023-11-19T01:40:09.108Z,12.98
2023-11-19T01:42:40.219Z,13.98
2023-11-19T01:45:09.635Z,15.75
2023-11-19T01:47:38.045Z,14.35
2023-11-19T01:50:09.323Z,14.23
2023-11-19T01:52:39.042Z,14.57
2023-11-19T01:55:08.931Z,15.40
2023-11-19T01:57:39.182Z,13.68
2023-11-19T02:00:13.338Z,14.30
2023-11-19T02:02:46.122Z,15.60
2023-11-19T02:05:15.010Z,15.18
2023-11-19T02:07:42.215Z,13.90
2023-11-19T02:10:14.362Z,14.88
2023-11-19T02:12:46.039Z,15.25
2023-11-19T02:15:13.657Z,13.02
2023-11-19T02:17:41.145Z,13.98
2023-11-19T02:20:10.899Z,15.43
2023-11-19T02:22:38.455Z,15.25
2023-11-19T02:25:09.238Z,17.17
2023-11-19T02:28:00.947Z,17.75
2023-11-19T02:30:29.626Z,18.83
2023-11-19T02:32:59.016Z,18.00
2023-11-19T02:35:27.498Z,17.80
2023-11-19T02:37:58.757Z,18.88
2023-11-19T02:40:26.397Z,17.35
2023-11-19T02:42:55.683Z,19.15
2023-11-19T02:45:27.328Z,19.05
2023-11-19T02:47:56.217Z,17.45
2023-11-19T02:50:26.944Z,18.35
2023-11-19T02:52:58.012Z,17.33
2023-11-19T02:55:26.702Z,19.58
2023-11-19T02:57:54.947Z,18.10
2023-11-19T03:00:33.447Z,19.23
2023-11-19T03:03:01.370Z,19.25
2023-11-19T03:05:31.951Z,17.30
2023-11-19T03:07:59.159Z,19.33
2023-11-19T03:57:06.999Z,21.20
2023-11-19T03:59:34.661Z,20.25
2023-11-19T04:02:02.145Z,17.83
2023-11-19T04:04:30.798Z,19.65
2023-11-19T04:06:59.187Z,19.38
2023-11-19T04:09:26.318Z,19.20
2023-11-19T04:11:53.652Z,19.42
2023-11-19T04:14:20.797Z,20.42
2023-11-19T04:19:15.214Z,19.92
2023-11-19T04:21:43.551Z,19.15
2023-11-19T04:24:15.051Z,19.75
2023-11-19T04:26:46.507Z,19.90
2023-11-19T04:29:18.435Z,21.48
2023-11-19T04:31:47.001Z,20.98
2023-11-19T04:34:14.355Z,22.88
2023-11-19T04:36:41.764Z,22.27
2023-11-19T04:41:50.912Z,20.38
2023-11-19T04:44:18.760Z,22.30
2023-11-19T04:46:46.997Z,21.63
2023-11-19T04:49:15.540Z,19.98
2023-11-19T04:51:43.741Z,20.85
2023-11-19T04:54:11.707Z,22.55
2023-11-19T04:56:38.967Z,20.42
2023-11-19T04:59:10.130Z,23.45
2023-11-19T05:01:37.364Z,22.60
2023-11-19T05:04:04.854Z,23.05
2023-11-19T05:06:32.750Z,22.23
2023-11-19T05:09:09.038Z,22.10
2023-11-19T05:11:36.599Z,22.25
2023-11-19T05:14:07.400Z,22.60
2023-11-19T05:16:34.668Z,23.27
2023-11-19T05:19:02.044Z,22.27
2023-11-19T05:21:29.223Z,21.05
2023-11-19T05:23:56.570Z,22.70
2023-11-19T05:26:25.260Z,24.10
2023-11-19T05:28:52.632Z,23.15
2023-11-19T05:31:20.032Z,22.80
2023-11-19T05:33:47.308Z,23.00
2023-11-19T05:36:15.003Z,24.90
2023-11-19T05:38:42.170Z,22.92
2023-11-19T05:41:09.693Z,23.27
2023-11-19T05:43:36.972Z,24.05
2023-11-19T05:46:04.614Z,23.80
2023-11-19T05:48:48.051Z,24.60
2023-11-19T05:51:18.631Z,23.65
2023-11-19T05:53:49.246Z,24.13
2023-11-19T05:56:17.385Z,22.95
2023-11-19T05:58:46.336Z,24.00
2023-11-19T06:01:16.441Z,25.58
2023-11-19T06:03:44.938Z,25.20
2023-11-19T06:06:13.418Z,25.85
2023-11-19T06:08:40.782Z,26.60
2023-11-19T06:11:08.991Z,24.95
2023-11-19T06:13:36.150Z,27.83
2023-11-19T06:16:04.310Z,32.80
2023-11-19T06:18:32.789Z,28.98
2023-11-19T06:20:59.971Z,27.40
2023-11-19T06:25:54.494Z,29.02
2023-11-19T06:28:21.792Z,28.58
2023-11-19T06:30:49.782Z,24.35
2023-11-19T06:33:17.408Z,24.92
2023-11-19T07:49:39.758Z,16.25
2023-11-19T07:52:21.588Z,16.00
2023-11-19T07:54:51.533Z,16.33
2023-11-19T07:57:19.562Z,16.30
2023-11-19T07:59:47.006Z,14.82
2023-11-19T08:02:15.975Z,15.48
2023-11-19T08:04:46.474Z,16.17
2023-11-19T08:07:20.655Z,15.90
2023-11-19T08:09:51.434Z,15.18
2023-11-19T08:12:18.941Z,15.70
2023-11-19T08:14:46.185Z,15.25
2023-11-19T08:17:16.219Z,14.68
2023-11-19T08:19:43.392Z,14.45
2023-11-19T08:24:38.107Z,13.40
2023-11-19T08:27:06.168Z,12.65
2023-11-19T08:29:33.566Z,12.38
2023-11-19T08:32:03.649Z,11.63
2023-11-19T08:34:31.127Z,13.07
2023-11-19T08:36:58.482Z,12.25
2023-11-19T08:39:25.750Z,12.20
2023-11-19T08:41:52.974Z,11.30
2023-11-19T08:44:21.001Z,12.52
2023-11-19T08:46:50.343Z,11.50
2023-11-19T08:49:17.954Z,11.85
2023-11-19T08:51:46.694Z,11.55
2023-11-19T08:54:14.387Z,12.32
2023-11-19T08:56:44.020Z,12.15
2023-11-19T08:59:11.475Z,10.73
2023-11-19T09:01:40.237Z,11.82
2023-11-19T09:04:07.991Z,12.27
2023-11-19T09:06:40.539Z,13.48
2023-11-19T09:09:10.979Z,14.00
2023-11-19T09:11:38.883Z,12.93
2023-11-19T09:14:06.408Z,12.55
2023-11-19T09:16:39.698Z,11.63
2023-11-19T09:19:09.372Z,12.45
2023-11-19T09:21:39.906Z,12.82
2023-11-19T09:24:09.056Z,12.00
2023-11-19T09:26:51.592Z,11.10
2023-11-19T09:29:19.230Z,9.93
2023-11-19T09:31:49.150Z,9.52
2023-11-19T09:34:16.397Z,9.43
2023-11-19T09:39:16.258Z,8.93
2023-11-19T09:41:43.656Z,8.95
2023-11-19T09:44:13.227Z,9.77
2023-11-19T09:46:42.740Z,9.85
2023-11-19T09:49:11.472Z,9.90
2023-11-19T09:51:39.083Z,10.27
2023-11-19T09:54:08.389Z,10.13
2023-11-19T09:56:39.850Z,9.27
2023-11-19T09:59:11.643Z,9.75
2023-11-19T10:01:41.905Z,9.88
2023-11-19T10:04:16.892Z,9.38
2023-11-19T10:06:46.894Z,9.63
2023-11-19T10:09:16.724Z,9.23
2023-11-19T10:11:44.123Z,9.70
2023-11-19T10:14:15.804Z,9.82
2023-11-19T10:16:44.110Z,9.15
2023-11-19T10:19:21.683Z,10.05
2023-11-19T10:21:56.399Z,9.60
2023-11-19T10:24:38.425Z,9.95
2023-11-19T10:27:10.678Z,9.68
2023-11-19T10:29:39.524Z,9.57
2023-11-19T10:32:24.515Z,11.38
2023-11-19T10:35:06.706Z,10.43
2023-11-19T10:37:36.666Z,10.70
2023-11-19T10:40:06.875Z,9.52
2023-11-19T10:42:34.430Z,9.85
2023-11-19T10:45:05.931Z,11.10
2023-11-19T10:50:08.096Z,9.70
2023-11-19T10:52:38.289Z,9.50
2023-11-19T10:55:09.750Z,10.32
2023-11-19T10:57:46.440Z,10.18
2023-11-19T11:00:20.725Z,9.80
2023-11-19T11:02:56.358Z,10.05
2023-11-19T11:05:25.451Z,10.23
2023-11-19T11:07:54.031Z,10.43
2023-11-19T11:10:27.398Z,10.93
2023-11-19T11:13:00.579Z,10.82
2023-11-19T11:15:32.834Z,11.38
2023-11-19T11:18:04.355Z,11.45
2023-11-19T11:20:32.877Z,11.40
2023-11-19T11:23:26.084Z,11.70
2023-11-19T11:26:08.738Z,12.60
2023-11-19T11:28:39.041Z,12.13
2023-11-19T11:31:38.722Z,13.45
2023-11-19T11:34:26.531Z,12.55
2023-11-19T11:37:08.481Z,12.45
2023-11-19T11:39:36.680Z,12.57
2023-11-19T11:42:20.293Z,13.20
2023-11-19T11:45:10.866Z,12.57
2023-11-19T11:47:44.708Z,12.80
2023-11-19T11:50:20.376Z,12.57
2023-11-19T11:53:00.702Z,12.93
2023-11-19T11:55:49.632Z,12.40
2023-11-19T11:58:33.517Z,13.52
2023-11-19T12:01:07.154Z,12.60
2023-11-19T12:03:35.600Z,13.27
2023-11-19T12:06:04.555Z,13.23
2023-11-19T12:08:53.291Z,14.10
2023-11-19T12:11:22.994Z,13.77
2023-11-19T12:14:00.074Z,14.75
2023-11-19T12:16:29.780Z,12.95
2023-11-19T12:18:57.792Z,14.43
2023-11-19T12:21:32.835Z,13.80
2023-11-19T12:26:40.684Z,14.80
2023-11-19T12:29:10.435Z,12.85
2023-11-19T12:31:39.254Z,13.38
2023-11-19T12:34:08.469Z,13.57
2023-11-19T12:36:36.587Z,13.88
2023-11-19T12:39:05.260Z,13.60
2023-11-19T12:41:32.733Z,12.30
2023-11-19T12:44:13.913Z,13.90
2023-11-19T12:46:41.725Z,14.52
2023-11-19T12:49:12.765Z,14.75
2023-11-19T12:51:42.669Z,14.30
2023-11-19T12:54:38.360Z,14.05
2023-11-19T12:57:07.072Z,13.82
2023-11-19T12:59:34.584Z,13.80
2023-11-19T13:02:02.189Z,14.35
2023-11-19T13:04:34.895Z,14.32
2023-11-19T13:07:06.097Z,13.93
2023-11-19T13:09:34.140Z,16.15
2023-11-19T13:12:14.805Z,15.63
2023-11-19T13:14:43.824Z,15.15
2023-11-19T13:17:16.275Z,16.20
2023-11-19T13:19:44.462Z,16.85
2023-11-19T13:22:11.972Z,15.70
2023-11-19T13:24:41.825Z,16.25
2023-11-19T13:27:10.631Z,18.17
2023-11-19T13:29:38.078Z,14.88
2023-11-19T13:32:07.171Z,16.60
2023-11-19T13:34:34.794Z,16.00
2023-11-19T13:37:02.118Z,16.08
2023-11-19T13:39:29.708Z,16.58
2023-11-19T13:42:13.399Z,15.38
2023-11-19T13:44:43.042Z,15.20
2023-11-19T13:47:15.296Z,15.45
2023-11-19T13:49:42.764Z,15.70
2023-11-19T13:52:10.209Z,16.40
2023-11-19T13:54:39.070Z,16.45
2023-11-19T13:57:06.733Z,14.50
2023-11-19T13:59:34.111Z,17.70
2023-11-19T14:02:01.643Z,15.82
2023-11-19T14:04:29.451Z,16.88
2023-11-19T14:06:57.158Z,17.10
2023-11-19T14:09:24.713Z,16.13
2023-11-19T14:11:54.480Z,16.67
2023-11-19T14:14:22.343Z,15.27
2023-11-19T14:16:52.215Z,15.65
2023-11-19T14:19:19.811Z,15.90
2023-11-19T14:21:49.041Z,17.85
2023-11-19T14:24:16.506Z,15.75
2023-11-19T14:26:51.318Z,16.65
2023-11-19T14:29:19.315Z,16.85
2023-11-19T14:31:46.715Z,18.65
2023-11-19T14:34:14.138Z,16.67
2023-11-19T14:36:41.573Z,19.02
2023-11-19T14:39:09.004Z,18.73
2023-11-19T14:41:36.740Z,18.63
2023-11-19T14:44:05.161Z,18.50
2023-11-19T14:46:33.176Z,19.48
2023-11-19T14:49:01.059Z,18.88
2023-11-19T14:51:31.074Z,17.65
2023-11-19T14:53:59.506Z,18.85
2023-11-19T14:56:27.056Z,19.30
2023-11-19T14:58:54.590Z,20.95
2023-11-19T15:01:22.418Z,20.90
2023-11-19T15:06:26.823Z,21.08
2023-11-19T15:08:57.854Z,21.38
2023-11-19T15:11:27.794Z,22.50
2023-11-19T15:13:55.546Z,23.70
2023-11-19T15:16:38.447Z,20.77
2023-11-19T15:19:10.036Z,23.50
2023-11-19T15:21:38.043Z,25.23
2023-11-19T15:24:09.038Z,24.17
2023-11-19T15:26:37.420Z,26.10
2023-11-19T15:31:48.677Z,21.90
2023-11-19T15:34:17.057Z,24.83
2023-11-19T15:36:51.456Z,23.70
2023-11-19T15:39:28.080Z,24.15
2023-11-19T15:41:57.907Z,24.60
2023-11-19T15:44:26.734Z,23.75
2023-11-19T15:46:55.634Z,25.15
2023-11-19T15:49:23.954Z,23.33
2023-11-19T15:54:59.804Z,24.02
2023-11-19T15:57:28.309Z,22.98
2023-11-19T16:00:01.049Z,23.67
2023-11-19T16:02:29.874Z,23.15
2023-11-19T16:04:58.528Z,23.33
2023-11-19T16:07:39.332Z,23.13
2023-11-19T16:10:10.846Z,24.83
2023-11-19T16:12:38.871Z,21.98
2023-11-19T16:15:36.311Z,25.40
2023-11-19T16:18:04.964Z,21.38
2023-11-19T16:20:42.964Z,20.13
2023-11-19T16:25:52.670Z,24.13
2023-11-19T16:31:04.816Z,24.23
2023-11-19T16:33:46.692Z,21.48
2023-11-19T16:36:19.409Z,22.67
2023-11-19T16:38:51.775Z,21.90
2023-11-19T16:41:36.435Z,23.08
2023-11-19T16:44:10.870Z,22.65
2023-11-19T16:46:39.064Z,22.65
2023-11-19T16:49:08.995Z,22.83
2023-11-19T16:51:42.041Z,22.40
2023-11-19T16:54:13.885Z,21.92
2023-11-19T16:56:46.045Z,21.77
2023-11-19T16:59:17.142Z,22.38
2023-11-19T17:01:48.991Z,22.83
2023-11-19T17:04:29.013Z,22.23
2023-11-19T17:07:01.691Z,22.73
2023-11-19T17:09:31.765Z,23.02
2023-11-19T17:12:01.478Z,24.63
2023-11-19T17:17:06.015Z,22.02
2023-11-19T17:19:33.925Z,21.77
2023-11-19T17:22:04.248Z,23.40
2023-11-19T17:24:34.839Z,22.88
2023-11-19T17:27:06.266Z,23.88
2023-11-19T17:29:40.448Z,25.17
2023-11-19T17:32:40.518Z,44.30
2023-11-19T17:35:10.520Z,27.63
2023-11-19T17:37:56.840Z,23.83
2023-11-19T17:40:27.850Z,24.00
2023-11-19T17:42:58.315Z,23.48
2023-11-19T17:45:26.678Z,22.02
2023-11-19T17:47:55.146Z,23.85
2023-11-19T17:50:26.091Z,21.42
2023-11-19T17:52:55.558Z,24.60
2023-11-19T17:55:23.583Z,25.50
2023-11-19T17:57:52.780Z,24.42
2023-11-19T18:00:20.702Z,24.35
2023-11-19T18:02:55.942Z,24.27
2023-11-19T18:05:32.330Z,25.27
2023-11-19T18:08:05.801Z,26.02
2023-11-19T18:10:48.904Z,24.25
2023-11-19T18:13:24.722Z,26.02
2023-11-19T18:16:04.569Z,23.58
2023-11-19T18:18:35.446Z,24.67
2023-11-19T18:21:45.598Z,25.35
2023-11-19T18:24:02.831Z,26.10
2023-11-19T18:29:07.030Z,25.23
2023-11-19T18:31:38.269Z,25.08
2023-11-19T18:34:09.955Z,26.17
2023-11-19T18:36:38.459Z,25.73
2023-11-19T18:39:17.157Z,24.17
2023-11-19T18:41:53.520Z,23.42
2023-11-19T18:44:26.252Z,27.02
2023-11-19T18:46:54.081Z,26.98
2023-11-19T18:49:36.193Z,26.13
2023-11-19T18:52:09.894Z,27.90
2023-11-19T18:54:52.167Z,25.90
2023-11-19T18:57:31.955Z,27.05
2023-11-19T19:00:02.000Z,27.38
2023-11-19T19:02:32.575Z,26.50
2023-11-19T19:05:00.856Z,28.42
2023-11-19T19:07:32.436Z,26.45
2023-11-19T19:10:07.023Z,28.35
2023-11-19T19:12:46.766Z,28.23
2023-11-19T19:15:17.656Z,28.35
2023-11-19T19:17:45.930Z,29.95
2023-11-19T19:20:14.488Z,30.77
2023-11-19T19:22:47.731Z,28.75
2023-11-19T19:25:22.835Z,26.60
2023-11-19T19:28:20.428Z,31.13
2023-11-19T19:30:44.948Z,27.23
2023-11-19T19:33:16.708Z,28.13
2023-11-19T19:35:46.845Z,26.77
2023-11-19T19:38:19.522Z,27.80
2023-11-19T19:40:50.961Z,26.85
2023-11-19T19:43:27.115Z,27.77
2023-11-19T19:45:56.542Z,27.65
2023-11-19T19:48:26.984Z,26.50
2023-11-19T19:50:54.231Z,25.40
2023-11-19T19:53:21.941Z,24.80
2023-11-19T19:55:52.460Z,26.17
2023-11-19T19:58:19.805Z,25.65
2023-11-19T20:00:47.847Z,23.80
2023-11-19T20:03:16.679Z,24.23
2023-11-19T20:05:45.621Z,23.65
2023-11-19T20:08:13.069Z,23.13
2023-11-19T20:10:42.970Z,23.92
2023-11-19T20:13:19.148Z,23.50
2023-11-19T20:15:56.809Z,23.83
2023-11-19T20:18:26.026Z,24.10
2023-11-19T20:21:25.194Z,24.23
2023-11-19T20:24:04.338Z,23.80
2023-11-19T20:26:35.349Z,24.10
2023-11-19T20:31:35.713Z,22.63
2023-11-19T20:34:03.176Z,24.58
2023-11-19T20:36:33.604Z,25.85
2023-11-19T20:39:00.872Z,23.77
2023-11-19T20:41:31.265Z,25.60
2023-11-19T20:44:00.349Z,25.88
2023-11-19T20:46:27.789Z,26.92
2023-11-19T20:48:57.557Z,26.30
2023-11-19T20:51:30.532Z,24.25
2023-11-19T20:54:00.652Z,23.83
2023-11-19T20:56:30.315Z,25.20
2023-11-19T20:59:02.274Z,24.02
2023-11-19T21:01:29.742Z,24.48
2023-11-19T21:03:57.599Z,23.75
2023-11-19T21:06:24.928Z,26.20
2023-11-19T21:08:52.425Z,23.27
2023-11-19T21:11:20.886Z,23.73
2023-11-19T21:13:48.751Z,20.88
2023-11-19T21:16:18.478Z,21.00
2023-11-19T21:18:45.860Z,19.50
2023-11-19T21:21:15.655Z,19.13
2023-11-19T21:23:42.899Z,21.30
2023-11-19T21:26:13.197Z,20.80
2023-11-19T21:28:40.666Z,20.58
2023-11-19T21:31:08.488Z,22.20
2023-11-19T21:33:35.707Z,20.98
2023-11-19T21:36:06.022Z,20.55
2023-11-19T21:38:33.260Z,19.98
2023-11-19T21:41:05.746Z,21.02
2023-11-19T21:43:34.606Z,20.73
2023-11-19T21:46:01.929Z,22.63
2023-11-19T21:48:29.411Z,20.17
2023-11-19T21:50:57.665Z,21.13
2023-11-19T21:53:24.903Z,20.95
2023-11-19T21:58:39.170Z,19.45
2023-11-19T22:01:09.264Z,20.88
2023-11-19T22:03:38.229Z,18.77
2023-11-19T22:06:05.788Z,19.20
2023-11-19T22:08:33.511Z,19.05
2023-11-19T22:11:00.751Z,18.38
2023-11-19T22:13:28.096Z,20.13
2023-11-19T22:15:55.349Z,17.85
2023-11-19T22:18:22.757Z,17.40
2023-11-19T22:20:49.912Z,18.52
2023-11-19T22:23:17.186Z,19.80
2023-11-19T22:25:44.366Z,19.23
2023-11-19T22:28:11.775Z,19.75
2023-11-19T22:30:42.696Z,19.02
2023-11-19T22:33:10.174Z,20.00
2023-11-19T22:35:37.852Z,20.17
2023-11-19T22:38:05.171Z,19.42
2023-11-19T22:40:33.885Z,18.75
2023-11-19T22:45:28.515Z,19.63
2023-11-19T22:47:55.825Z,18.20
2023-11-19T22:50:23.172Z,16.33
2023-11-19T22:52:50.428Z,16.60
2023-11-19T22:55:17.593Z,17.80
2023-11-19T23:00:29.392Z,17.23
2023-11-19T23:02:58.739Z,17.70
2023-11-19T23:05:31.393Z,16.48
2023-11-19T23:08:01.964Z,17.02
2023-11-19T23:10:29.281Z,17.35
2023-11-19T23:12:58.803Z,16.33
2023-11-19T23:15:27.177Z,17.77
2023-11-19T23:17:54.701Z,16.42
2023-11-19T23:20:22.622Z,16.45
2023-11-19T23:22:51.008Z,16.08
2023-11-19T23:25:18.224Z,18.98
2023-11-19T23:27:46.148Z,16.27
2023-11-19T23:30:17.108Z,19.15
2023-11-19T23:32:44.436Z,17.73
2023-11-19T23:35:12.802Z,18.77
2023-11-19T23:37:42.380Z,17.85
2023-11-19T23:40:10.017Z,17.48
2023-11-19T23:42:37.207Z,17.50
2023-11-19T23:45:04.770Z,17.17
2023-11-19T23:47:32.601Z,17.08
2023-11-19T23:49:59.987Z,13.50
2023-11-19T23:52:27.232Z,17.23
2023-11-19T23:54:54.465Z,15.77
2023-11-19T23:57:22.778Z,18.20
2023-11-19T23:59:50.123Z,19.15
